Time;durP1;ratioP1;P1;durP2;ratioP2;P2;SDS_P1;SDS_P2;PMS_P1;PMS_P2;Temp;Humidity;BMP_temperature;BMP_pressure;BME280_temperature;BME280_humidity;BME280_pressure;Samples;Min_cycle;Max_cycle;Signal;HPM_P1;HPM_P2
2023/03/14 00:00:05;;;;;;;6.68;1.45;;;;;;;;;;8237203;28;20046;-75
2023/03/14 00:04:05;;;;;;;2.33;0.90;;;;;;;;;;8239929;28;20963;-76
2023/03/14 00:08:05;;;;;;;6.32;1.20;;;;;;;;;;8235955;28;20028;-76
2023/03/14 00:12:07;;;;;;;4.72;1.17;;;;;;;;;;8241902;28;20690;-76
2023/03/14 00:16:09;;;;;;;5.82;1.83;;;;;;;;;;8236606;28;20832;-76
2023/03/14 00:20:10;;;;;;;5.35;1.10;;;;;;;;;;8241629;28;20026;-76
2023/03/14 00:24:11;;;;;;;4.85;1.30;;;;;;;;;;8236539;28;20481;-76
2023/03/14 00:28:11;;;;;;;5.75;1.20;;;;;;;;;;8243940;28;20037;-76
2023/03/14 00:32:11;;;;;;;5.28;1.38;;;;;;;;;;8236706;28;20046;-76
2023/03/14 00:36:13;;;;;;;6.43;1.08;;;;;;;;;;8238747;28;20038;-76
2023/03/14 00:40:13;;;;;;;6.00;1.40;;;;;;;;;;8241599;28;20030;-75
2023/03/14 00:44:13;;;;;;;3.42;1.52;;;;;;;;;;8242543;28;20029;-76
2023/03/14 00:48:14;;;;;;;4.35;1.42;;;;;;;;;;8240331;28;20165;-76
2023/03/14 00:52:14;;;;;;;3.80;1.17;;;;;;;;;;8246033;28;21230;-76
2023/03/14 00:56:14;;;;;;;4.68;1.42;;;;;;;;;;8244366;28;20038;-76
2023/03/14 01:00:14;;;;;;;4.93;1.20;;;;;;;;;;8246788;28;20064;-76
2023/03/14 01:04:15;;;;;;;6.45;1.30;;;;;;;;;;8246732;28;20285;-76
2023/03/14 01:08:15;;;;;;;6.93;1.50;;;;;;;;;;8247394;28;20022;-76
2023/03/14 01:12:15;;;;;;;6.43;1.00;;;;;;;;;;8244379;28;20121;-76
2023/03/14 01:16:16;;;;;;;3.42;1.30;;;;;;;;;;8247618;28;20034;-76
2023/03/14 01:20:17;;;;;;;3.65;1.13;;;;;;;;;;8246464;28;20041;-75
2023/03/14 01:24:17;;;;;;;4.00;1.45;;;;;;;;;;8244943;28;20153;-75
2023/03/14 01:28:17;;;;;;;2.80;1.00;;;;;;;;;;8249596;28;20148;-75
2023/03/14 01:32:17;;;;;;;7.18;1.40;;;;;;;;;;8243051;28;20037;-75
2023/03/14 01:36:18;;;;;;;7.93;1.45;;;;;;;;;;8245673;28;20181;-75
2023/03/14 01:40:18;;;;;;;6.28;1.50;;;;;;;;;;8244257;28;20030;-76
2023/03/14 01:44:19;;;;;;;4.35;1.25;;;;;;;;;;8263820;28;20030;-75
2023/03/14 01:48:19;;;;;;;4.68;1.40;;;;;;;;;;8243357;28;20706;-76
2023/03/14 01:52:22;;;;;;;3.03;1.00;;;;;;;;;;8253563;28;20034;-75
2023/03/14 01:56:23;;;;;;;4.85;1.30;;;;;;;;;;8247749;28;20120;-76
2023/03/14 02:00:23;;;;;;;4.93;1.50;;;;;;;;;;8240048;28;20042;-76
2023/03/14 02:04:25;;;;;;;5.07;1.27;;;;;;;;;;8259966;28;20194;-76
2023/03/14 02:08:27;;;;;;;4.35;1.15;;;;;;;;;;8246825;28;20608;-75
2023/03/14 02:12:27;;;;;;;4.15;1.05;;;;;;;;;;8248926;28;20042;-75
2023/03/14 02:16:28;;;;;;;2.97;1.00;;;;;;;;;;8245686;28;20088;-75
2023/03/14 02:20:28;;;;;;;3.65;1.08;;;;;;;;;;8253787;28;20640;-75
2023/03/14 02:24:50;;;;;;;4.30;1.15;;;;;;;;;;8246131;28;20038;-75
2023/03/14 02:28:50;;;;;;;5.03;1.00;;;;;;;;;;8253663;28;20475;-75
2023/03/14 02:32:53;;;;;;;8.35;1.58;;;;;;;;;;8248159;28;20398;-75
2023/03/14 02:37:04;;;;;;;3.05;1.05;;;;;;;;;;8253910;28;20057;-74
2023/03/14 02:41:04;;;;;;;6.47;1.25;;;;;;;;;;8258449;28;20033;-74
2023/03/14 02:45:04;;;;;;;3.35;1.13;;;;;;;;;;8244816;28;20076;-75
2023/03/14 02:49:07;;;;;;;3.55;1.15;;;;;;;;;;8285779;28;20619;-74
2023/03/14 02:53:08;;;;;;;3.10;1.40;;;;;;;;;;8291000;28;20384;-75
2023/03/14 02:57:08;;;;;;;4.38;1.23;;;;;;;;;;8283989;28;20280;-75
2023/03/14 03:01:08;;;;;;;4.95;1.42;;;;;;;;;;8289597;28;20034;-75
2023/03/14 03:05:09;;;;;;;3.33;1.15;;;;;;;;;;8273238;28;20022;-75
2023/03/14 03:09:09;;;;;;;5.53;1.23;;;;;;;;;;8277260;28;20045;-75
2023/03/14 03:13:10;;;;;;;2.65;1.33;;;;;;;;;;8275611;28;20036;-75
2023/03/14 03:17:10;;;;;;;4.22;1.13;;;;;;;;;;8275899;28;20799;-75
2023/03/14 03:21:10;;;;;;;6.80;1.50;;;;;;;;;;8291744;28;20034;-75
2023/03/14 03:25:11;;;;;;;7.60;1.27;;;;;;;;;;8273250;28;20027;-75
2023/03/14 03:29:11;;;;;;;2.85;1.08;;;;;;;;;;8273508;28;20034;-75
2023/03/14 03:33:12;;;;;;;5.40;1.15;;;;;;;;;;8272111;28;20046;-75
2023/03/14 03:37:12;;;;;;;5.20;1.10;;;;;;;;;;8274465;28;20026;-75
2023/03/14 03:41:12;;;;;;;6.35;1.25;;;;;;;;;;8276871;28;20038;-76
2023/03/14 03:45:13;;;;;;;3.95;1.08;;;;;;;;;;8249104;28;20030;-75
2023/03/14 03:49:13;;;;;;;5.28;1.20;;;;;;;;;;8240359;28;20026;-75
2023/03/14 03:53:13;;;;;;;3.40;1.00;;;;;;;;;;8240145;28;20152;-76
2023/03/14 03:57:13;;;;;;;3.45;1.00;;;;;;;;;;8204093;28;1035532;-75
2023/03/14 04:01:13;;;;;;;3.72;0.90;;;;;;;;;;8240575;28;20049;-74
2023/03/14 04:05:14;;;;;;;2.47;1.00;;;;;;;;;;8242255;28;20034;-76
2023/03/14 04:09:14;;;;;;;3.45;1.02;;;;;;;;;;8241776;28;20029;-76
2023/03/14 04:13:14;;;;;;;4.97;1.20;;;;;;;;;;8241019;28;20034;-75
2023/03/14 04:17:15;;;;;;;4.03;1.00;;;;;;;;;;8240151;28;20463;-75
2023/03/14 04:21:15;;;;;;;2.83;1.05;;;;;;;;;;8239725;28;20034;-75
2023/03/14 04:25:17;;;;;;;5.30;1.08;;;;;;;;;;8238756;28;20032;-75
2023/03/14 04:29:17;;;;;;;3.47;1.10;;;;;;;;;;8234666;28;20030;-75
2023/03/14 04:33:18;;;;;;;4.63;1.27;;;;;;;;;;8249510;28;20042;-75
2023/03/14 04:37:18;;;;;;;4.10;1.05;;;;;;;;;;8237282;28;20033;-75
2023/03/14 04:41:18;;;;;;;3.95;1.00;;;;;;;;;;8250395;28;20081;-75
2023/03/14 04:45:18;;;;;;;3.65;0.98;;;;;;;;;;8237617;28;20029;-75
2023/03/14 04:49:18;;;;;;;4.40;0.90;;;;;;;;;;8239099;28;20144;-75
2023/03/14 04:53:19;;;;;;;6.05;1.08;;;;;;;;;;8251926;28;20924;-75
2023/03/14 04:57:19;;;;;;;4.68;0.82;;;;;;;;;;8237386;28;20415;-75
2023/03/14 05:01:19;;;;;;;5.15;1.02;;;;;;;;;;8237036;28;20042;-75
2023/03/14 05:05:19;;;;;;;4.13;1.10;;;;;;;;;;8242249;28;20030;-74
2023/03/14 05:09:19;;;;;;;4.97;1.35;;;;;;;;;;8236044;28;20025;-75
2023/03/14 05:13:20;;;;;;;4.10;1.23;;;;;;;;;;8236399;28;20036;-75
2023/03/14 05:17:20;;;;;;;5.00;1.48;;;;;;;;;;8236501;28;20930;-75
2023/03/14 05:21:20;;;;;;;3.27;1.00;;;;;;;;;;8245107;28;20028;-75
2023/03/14 05:25:20;;;;;;;4.25;1.10;;;;;;;;;;8238675;28;20400;-75
2023/03/14 05:29:21;;;;;;;3.00;0.85;;;;;;;;;;8237733;28;20033;-75
2023/03/14 05:33:21;;;;;;;4.97;1.33;;;;;;;;;;8237657;28;20037;-75
2023/03/14 05:37:21;;;;;;;3.85;1.13;;;;;;;;;;8238363;28;20030;-75
2023/03/14 05:41:21;;;;;;;2.97;1.00;;;;;;;;;;8242323;28;20092;-75
2023/03/14 05:45:21;;;;;;;4.90;0.93;;;;;;;;;;8241871;28;20033;-74
2023/03/14 05:49:21;;;;;;;1.88;0.90;;;;;;;;;;8241746;28;20036;-75
2023/03/14 05:53:22;;;;;;;3.30;1.00;;;;;;;;;;8240344;28;20077;-75
2023/03/14 05:57:22;;;;;;;1.88;0.80;;;;;;;;;;8237530;28;20038;-75
2023/03/14 06:01:22;;;;;;;4.90;1.35;;;;;;;;;;8240133;28;21037;-75
2023/03/14 06:05:22;;;;;;;2.85;0.75;;;;;;;;;;8240964;28;20022;-75
2023/03/14 06:09:23;;;;;;;5.60;1.30;;;;;;;;;;8242212;28;20041;-76
2023/03/14 06:13:23;;;;;;;1.73;0.70;;;;;;;;;;8240826;28;20053;-75
2023/03/14 06:17:23;;;;;;;1.45;0.80;;;;;;;;;;8242758;28;20140;-76
2023/03/14 06:21:23;;;;;;;2.50;0.63;;;;;;;;;;8240209;28;20034;-76
2023/03/14 06:25:24;;;;;;;2.10;0.77;;;;;;;;;;8241382;28;20312;-76
2023/03/14 06:29:24;;;;;;;2.22;0.82;;;;;;;;;;8239888;28;20022;-76
2023/03/14 06:33:24;;;;;;;2.33;0.75;;;;;;;;;;8244712;28;21047;-75
2023/03/14 06:37:24;;;;;;;3.17;0.73;;;;;;;;;;8244532;28;20045;-75
2023/03/14 06:41:26;;;;;;;3.97;0.80;;;;;;;;;;8243889;28;20888;-74
2023/03/14 06:45:26;;;;;;;2.30;0.77;;;;;;;;;;8243811;28;20758;-75
2023/03/14 06:49:26;;;;;;;2.13;0.88;;;;;;;;;;8243627;28;20022;-77
2023/03/14 06:53:27;;;;;;;4.43;1.05;;;;;;;;;;8243847;28;20033;-76
2023/03/14 06:57:27;;;;;;;2.25;0.60;;;;;;;;;;8243224;28;20041;-76
2023/03/14 07:01:29;;;;;;;2.23;0.73;;;;;;;;;;8249384;28;20037;-77
2023/03/14 07:05:29;;;;;;;3.97;0.90;;;;;;;;;;8246145;28;20299;-76
2023/03/14 07:09:29;;;;;;;1.97;0.90;;;;;;;;;;8243509;28;20132;-75
2023/03/14 07:13:30;;;;;;;2.95;0.80;;;;;;;;;;8243890;28;20363;-76
2023/03/14 07:17:30;;;;;;;1.73;0.57;;;;;;;;;;8246976;28;20090;-78
2023/03/14 07:21:31;;;;;;;3.50;0.77;;;;;;;;;;8258495;28;20037;-76
2023/03/14 07:25:31;;;;;;;2.35;0.80;;;;;;;;;;8246938;28;20540;-76
2023/03/14 07:29:32;;;;;;;3.10;0.98;;;;;;;;;;8243675;28;20091;-76
2023/03/14 07:33:32;;;;;;;1.90;1.10;;;;;;;;;;8244908;28;20458;-76
2023/03/14 07:37:32;;;;;;;2.50;0.90;;;;;;;;;;8241697;28;20025;-76
2023/03/14 07:41:32;;;;;;;1.27;0.77;;;;;;;;;;8242795;28;20061;-76
2023/03/14 07:45:32;;;;;;;3.65;0.82;;;;;;;;;;8247793;28;20104;-76
2023/03/14 07:49:33;;;;;;;1.00;0.70;;;;;;;;;;8255215;28;20049;-76
2023/03/14 07:53:33;;;;;;;4.15;1.20;;;;;;;;;;8242994;28;20030;-76
2023/03/14 07:57:33;;;;;;;1.20;0.85;;;;;;;;;;8241491;28;20272;-76
2023/03/14 08:01:33;;;;;;;1.85;0.70;;;;;;;;;;8242946;28;20026;-76
2023/03/14 08:05:34;;;;;;;2.50;0.70;;;;;;;;;;8240812;28;20031;-76
2023/03/14 08:09:35;;;;;;;4.20;0.70;;;;;;;;;;8240312;28;20149;-76
2023/03/14 08:13:35;;;;;;;1.70;0.77;;;;;;;;;;8243072;28;20041;-76
2023/03/14 08:17:36;;;;;;;3.55;0.90;;;;;;;;;;8242549;28;20125;-76
2023/03/14 08:21:36;;;;;;;1.67;0.70;;;;;;;;;;8242281;28;20172;-76
2023/03/14 08:25:37;;;;;;;1.80;0.70;;;;;;;;;;8239880;28;20030;-76
2023/03/14 08:29:37;;;;;;;3.05;0.70;;;;;;;;;;8243310;28;20312;-76
2023/03/14 08:33:37;;;;;;;1.23;0.77;;;;;;;;;;8240002;28;20920;-76
2023/03/14 08:37:38;;;;;;;1.60;0.60;;;;;;;;;;8256867;28;20026;-76
2023/03/14 08:41:40;;;;;;;2.67;0.73;;;;;;;;;;8240823;28;20041;-77
2023/03/14 08:45:41;;;;;;;0.98;0.60;;;;;;;;;;8241283;28;20744;-75
2023/03/14 08:49:41;;;;;;;1.05;0.60;;;;;;;;;;8242022;28;20021;-76
2023/03/14 08:53:41;;;;;;;2.70;0.80;;;;;;;;;;8241882;28;20088;-76
2023/03/14 08:57:42;;;;;;;0.88;0.60;;;;;;;;;;8241509;28;20022;-76
2023/03/14 09:01:42;;;;;;;1.03;0.60;;;;;;;;;;8257123;28;20205;-76
2023/03/14 09:05:42;;;;;;;1.58;0.70;;;;;;;;;;8243712;28;20021;-76
2023/03/14 09:09:42;;;;;;;0.88;0.70;;;;;;;;;;8256293;28;20022;-76
2023/03/14 09:13:42;;;;;;;0.63;0.60;;;;;;;;;;8243743;28;20060;-77
2023/03/14 09:17:43;;;;;;;1.33;0.70;;;;;;;;;;8261366;28;20121;-76
2023/03/14 09:21:43;;;;;;;0.57;0.57;;;;;;;;;;8252222;28;20112;-76
2023/03/14 09:25:44;;;;;;;2.65;0.65;;;;;;;;;;8247199;28;20030;-76
2023/03/14 09:29:44;;;;;;;0.60;0.60;;;;;;;;;;8247966;28;20021;-76
2023/03/14 09:33:44;;;;;;;1.38;0.82;;;;;;;;;;8244475;28;20362;-76
2023/03/14 09:37:44;;;;;;;0.90;0.60;;;;;;;;;;8245261;28;20547;-76
2023/03/14 09:41:49;;;;;;;0.80;0.70;;;;;;;;;;8246598;28;20096;-77
2023/03/14 09:45:50;;;;;;;0.70;0.70;;;;;;;;;;8248149;28;20038;-76
2023/03/14 09:49:50;;;;;;;0.88;0.60;;;;;;;;;;8246157;28;20028;-77
2023/03/14 09:53:51;;;;;;;1.43;0.70;;;;;;;;;;8248658;28;20030;-76
2023/03/14 09:57:56;;;;;;;0.70;0.52;;;;;;;;;;8246608;28;20284;-77
2023/03/14 10:01:59;;;;;;;0.65;0.65;;;;;;;;;;8246441;28;20510;-76
2023/03/14 10:06:00;;;;;;;1.27;0.80;;;;;;;;;;8246448;28;20025;-77
2023/03/14 10:10:00;;;;;;;0.70;0.60;;;;;;;;;;8245897;28;20022;-76
2023/03/14 10:14:08;;;;;;;1.88;0.65;;;;;;;;;;8249319;28;20026;-77
2023/03/14 10:18:12;;;;;;;1.30;0.52;;;;;;;;;;8243961;28;20030;-76
2023/03/14 10:22:12;;;;;;;;;;;;;;;;;;8245756;28;20657;-77
2023/03/14 10:26:14;;;;;;;3.20;0.60;;;;;;;;;;8246524;28;19949;-76
2023/03/14 10:30:27;;;;;;;0.82;0.60;;;;;;;;;;8245318;28;20022;-77
2023/03/14 10:34:32;;;;;;;0.50;0.50;;;;;;;;;;8245569;28;20030;-76
2023/03/14 10:38:34;;;;;;;0.63;0.52;;;;;;;;;;8250714;28;20512;-77
2023/03/14 10:42:39;;;;;;;0.57;0.50;;;;;;;;;;8248581;28;20022;-77
2023/03/14 10:46:39;;;;;;;0.50;0.50;;;;;;;;;;8243126;28;20038;-76
2023/03/14 10:50:47;;;;;;;0.40;0.40;;;;;;;;;;8245236;28;20959;-77
2023/03/14 10:54:48;;;;;;;1.65;0.60;;;;;;;;;;8244726;28;20160;-75
2023/03/14 10:58:50;;;;;;;0.60;0.60;;;;;;;;;;8245116;28;20035;-77
2023/03/14 11:02:59;;;;;;;0.57;0.57;;;;;;;;;;8242622;28;20038;-76
2023/03/14 11:07:20;;;;;;;0.73;0.60;;;;;;;;;;8242366;28;20056;-76
2023/03/14 11:11:25;;;;;;;0.57;0.57;;;;;;;;;;8243639;28;20982;-77
2023/03/14 11:15:30;;;;;;;0.60;0.60;;;;;;;;;;8245515;28;20042;-76
2023/03/14 11:19:36;;;;;;;0.85;0.60;;;;;;;;;;8243132;28;20037;-76
2023/03/14 11:23:55;;;;;;;0.50;0.50;;;;;;;;;;8244299;28;20037;-76
2023/03/14 11:28:01;;;;;;;0.50;0.50;;;;;;;;;;8244291;28;20079;-76
2023/03/14 11:32:02;;;;;;;0.50;0.50;;;;;;;;;;8240689;28;20046;-76
2023/03/14 11:36:15;;;;;;;0.40;0.40;;;;;;;;;;8246134;28;20029;-77
2023/03/14 11:40:20;;;;;;;0.85;0.80;;;;;;;;;;8244125;28;20148;-75
2023/03/14 11:44:24;;;;;;;0.57;0.40;;;;;;;;;;8244409;28;20038;-76
2023/03/14 11:48:36;;;;;;;10.98;0.60;;;;;;;;;;8243807;28;20073;-76
2023/03/14 11:52:43;;;;;;;0.40;0.40;;;;;;;;;;8243145;28;21086;-76
2023/03/14 11:56:46;;;;;;;0.40;0.40;;;;;;;;;;8243547;28;20414;-76
2023/03/14 12:00:48;;;;;;;0.77;0.47;;;;;;;;;;8241700;28;20041;-76
2023/03/14 12:04:55;;;;;;;0.40;0.40;;;;;;;;;;8256355;28;20022;-76
2023/03/14 12:08:58;;;;;;;2.38;0.40;;;;;;;;;;8242453;28;20029;-77
2023/03/14 12:12:58;;;;;;;0.40;0.40;;;;;;;;;;8240946;28;20032;-76
2023/03/14 12:17:03;;;;;;;0.40;0.40;;;;;;;;;;8242217;28;20133;-76
2023/03/14 12:21:05;;;;;;;0.55;0.55;;;;;;;;;;8247303;28;20026;-76
2023/03/14 12:25:13;;;;;;;0.60;0.60;;;;;;;;;;8239568;28;20089;-76
2023/03/14 12:29:16;;;;;;;1.08;0.70;;;;;;;;;;8245358;28;20025;-76
2023/03/14 12:33:17;;;;;;;0.63;0.50;;;;;;;;;;8241426;28;20092;-77
2023/03/14 12:37:20;;;;;;;0.50;0.50;;;;;;;;;;8253088;28;20380;-76
2023/03/14 12:41:39;;;;;;;0.60;0.60;;;;;;;;;;8237994;28;20457;-76
2023/03/14 12:45:39;;;;;;;0.60;0.50;;;;;;;;;;8237259;28;20042;-76
2023/03/14 12:49:39;;;;;;;0.55;0.43;;;;;;;;;;8244104;28;20068;-76
2023/03/14 12:53:39;;;;;;;2.17;0.60;;;;;;;;;;8249369;28;20042;-76
2023/03/14 12:57:53;;;;;;;6.43;0.90;;;;;;;;;;8263080;28;20026;-76
2023/03/14 13:01:59;;;;;;;0.70;0.70;;;;;;;;;;8245062;28;20445;-77
2023/03/14 13:06:01;;;;;;;0.60;0.60;;;;;;;;;;8247063;28;20026;-76
2023/03/14 13:10:03;;;;;;;0.80;0.80;;;;;;;;;;8248699;28;20030;-76
2023/03/14 13:14:08;;;;;;;0.60;0.60;;;;;;;;;;8247600;28;20033;-75
2023/03/14 13:18:13;;;;;;;1.00;0.60;;;;;;;;;;8243286;28;21921;-77
2023/03/14 13:22:20;;;;;;;0.77;0.60;;;;;;;;;;8247986;28;20029;-76
2023/03/14 13:26:20;;;;;;;0.60;0.57;;;;;;;;;;8246024;28;20148;-76
2023/03/14 13:30:22;;;;;;;0.77;0.70;;;;;;;;;;8242043;28;20062;-77
2023/03/14 13:34:24;;;;;;;0.90;0.60;;;;;;;;;;8247416;28;20073;-76
2023/03/14 13:38:29;;;;;;;1.45;0.70;;;;;;;;;;8250114;28;20108;-77
2023/03/14 13:42:29;;;;;;;0.85;0.70;;;;;;;;;;8246271;28;20025;-77
2023/03/14 13:46:32;;;;;;;2.45;0.90;;;;;;;;;;8245217;28;20701;-77
2023/03/14 13:50:33;;;;;;;1.40;0.70;;;;;;;;;;8251481;28;20022;-77
2023/03/14 13:54:33;;;;;;;0.70;0.70;;;;;;;;;;8252219;28;20152;-76
2023/03/14 13:58:36;;;;;;;1.48;0.65;;;;;;;;;;8242726;28;20135;-78
2023/03/14 14:02:37;;;;;;;2.28;0.90;;;;;;;;;;8245904;28;20061;-76
2023/03/14 14:06:39;;;;;;;0.77;0.70;;;;;;;;;;8245433;28;20026;-76
2023/03/14 14:10:39;;;;;;;1.67;0.70;;;;;;;;;;8248713;28;20033;-77
2023/03/14 14:14:45;;;;;;;2.88;0.68;;;;;;;;;;8257165;28;20018;-77
2023/03/14 14:18:45;;;;;;;2.67;1.00;;;;;;;;;;8250726;28;20902;-77
2023/03/14 14:22:46;;;;;;;1.38;0.60;;;;;;;;;;8250224;28;20056;-77
2023/03/14 14:26:53;;;;;;;0.85;0.80;;;;;;;;;;8245981;28;20033;-77
2023/03/14 14:31:20;;;;;;;1.90;1.00;;;;;;;;;;8243717;28;20033;-77
2023/03/14 14:35:34;;;;;;;1.35;0.73;;;;;;;;;;8246535;28;20042;-77
2023/03/14 14:39:34;;;;;;;1.40;0.67;;;;;;;;;;8245807;28;20033;-76
2023/03/14 14:43:36;;;;;;;1.35;0.70;;;;;;;;;;8244484;28;20472;-76
2023/03/14 14:47:47;;;;;;;0.77;0.65;;;;;;;;;;8257817;28;20972;-76
2023/03/14 14:51:49;;;;;;;3.55;0.80;;;;;;;;;;8238891;28;20029;-77
2023/03/14 14:55:50;;;;;;;1.25;0.50;;;;;;;;;;8241238;28;20028;-76
2023/03/14 14:59:53;;;;;;;1.98;0.63;;;;;;;;;;8246188;28;20052;-76
2023/03/14 15:03:53;;;;;;;1.02;0.60;;;;;;;;;;8248014;28;20046;-76
2023/03/14 15:07:53;;;;;;;1.10;0.90;;;;;;;;;;8247288;28;21012;-76
2023/03/14 15:11:53;;;;;;;0.60;0.52;;;;;;;;;;8259324;28;20034;-76
2023/03/14 15:15:57;;;;;;;0.40;0.40;;;;;;;;;;8244028;28;20465;-76
2023/03/14 15:19:58;;;;;;;4.80;0.83;;;;;;;;;;8240971;28;20034;-76
2023/03/14 15:23:58;;;;;;;1.35;0.80;;;;;;;;;;8248209;28;20084;-76
2023/03/14 15:27:58;;;;;;;0.70;0.70;;;;;;;;;;8243204;28;20040;-75
2023/03/14 15:31:59;;;;;;;5.47;1.40;;;;;;;;;;8256893;28;21064;-76
2023/03/14 15:36:00;;;;;;;1.27;0.98;;;;;;;;;;8241624;28;20052;-77
2023/03/14 15:40:02;;;;;;;6.55;1.27;;;;;;;;;;8248001;28;20255;-76
2023/03/14 15:44:03;;;;;;;2.33;0.73;;;;;;;;;;8242407;28;20119;-76
2023/03/14 15:48:03;;;;;;;0.85;0.80;;;;;;;;;;8242823;28;20160;-76
2023/03/14 15:52:03;;;;;;;3.80;1.20;;;;;;;;;;8232110;28;20025;-76
2023/03/14 15:56:05;;;;;;;2.38;0.70;;;;;;;;;;8254752;28;20049;-76
2023/03/14 16:00:08;;;;;;;3.22;0.65;;;;;;;;;;8242353;28;20092;-77
2023/03/14 16:04:09;;;;;;;8.43;0.93;;;;;;;;;;8245141;28;20302;-77
2023/03/14 16:08:09;;;;;;;1.63;0.80;;;;;;;;;;8239959;28;20025;-77
2023/03/14 16:12:09;;;;;;;2.07;1.20;;;;;;;;;;8238877;28;20030;-77
2023/03/14 16:16:12;;;;;;;1.65;0.70;;;;;;;;;;8239623;28;20485;-77
2023/03/14 16:20:12;;;;;;;2.05;0.70;;;;;;;;;;8241778;28;20041;-77
2023/03/14 16:24:12;;;;;;;1.10;0.57;;;;;;;;;;8240551;28;20026;-77
2023/03/14 16:28:12;;;;;;;5.95;0.70;;;;;;;;;;8242585;28;20273;-77
2023/03/14 16:32:12;;;;;;;2.40;0.80;;;;;;;;;;8239576;28;20116;-76
2023/03/14 16:36:13;;;;;;;3.80;1.00;;;;;;;;;;8237200;28;20040;-77
2023/03/14 16:40:13;;;;;;;2.08;0.80;;;;;;;;;;8238579;28;20030;-77
2023/03/14 16:44:14;;;;;;;7.03;1.20;;;;;;;;;;8255678;28;20085;-77
2023/03/14 16:48:14;;;;;;;3.72;1.33;;;;;;;;;;8235694;28;20038;-78
2023/03/14 16:52:14;;;;;;;3.22;0.75;;;;;;;;;;8239410;28;20062;-78
2023/03/14 16:56:14;;;;;;;6.20;1.92;;;;;;;;;;8248608;28;20041;-77
2023/03/14 17:00:15;;;;;;;4.13;0.90;;;;;;;;;;8241059;28;20116;-77
2023/03/14 17:04:15;;;;;;;2.25;0.90;;;;;;;;;;8256176;28;20033;-77
2023/03/14 17:08:16;;;;;;;2.53;1.13;;;;;;;;;;8236512;28;20034;-78
2023/03/14 17:12:16;;;;;;;0.95;0.90;;;;;;;;;;8239357;28;20704;-77
2023/03/14 17:16:18;;;;;;;1.08;0.77;;;;;;;;;;8239749;28;20104;-77
2023/03/14 17:20:18;;;;;;;2.95;1.20;;;;;;;;;;8241916;28;20097;-77
2023/03/14 17:24:18;;;;;;;1.73;0.70;;;;;;;;;;8242284;28;20065;-76
2023/03/14 17:28:19;;;;;;;4.38;0.98;;;;;;;;;;8249520;28;20675;-76
2023/03/14 17:32:19;;;;;;;1.20;0.70;;;;;;;;;;8239321;28;20042;-76
2023/03/14 17:36:21;;;;;;;1.65;0.82;;;;;;;;;;8247757;28;20493;-76
2023/03/14 17:40:21;;;;;;;2.05;0.88;;;;;;;;;;8241246;28;20091;-76
2023/03/14 17:44:21;;;;;;;3.67;1.03;;;;;;;;;;8243172;28;20111;-77
2023/03/14 17:48:22;;;;;;;2.75;0.90;;;;;;;;;;8245240;28;20380;-77
2023/03/14 17:52:22;;;;;;;2.80;1.20;;;;;;;;;;8242970;28;20056;-77
2023/03/14 17:56:22;;;;;;;3.45;1.00;;;;;;;;;;8247898;28;20048;-77
2023/03/14 18:00:23;;;;;;;3.88;0.93;;;;;;;;;;8243149;28;20029;-76
2023/03/14 18:04:23;;;;;;;2.78;0.70;;;;;;;;;;8240050;28;20037;-76
2023/03/14 18:08:23;;;;;;;1.40;0.60;;;;;;;;;;8242897;28;20521;-77
2023/03/14 18:12:23;;;;;;;3.13;0.70;;;;;;;;;;8242642;28;20038;-76
2023/03/14 18:16:23;;;;;;;1.90;0.80;;;;;;;;;;8239642;28;20041;-73
2023/03/14 18:20:24;;;;;;;1.60;0.70;;;;;;;;;;8240559;28;20036;-73
2023/03/14 18:24:24;;;;;;;2.28;1.00;;;;;;;;;;8237221;28;20088;-74
2023/03/14 18:28:24;;;;;;;2.00;1.10;;;;;;;;;;8240341;28;20117;-74
2023/03/14 18:32:24;;;;;;;1.08;0.90;;;;;;;;;;8238121;28;20038;-74
2023/03/14 18:36:25;;;;;;;1.83;0.70;;;;;;;;;;8238240;28;20034;-73
2023/03/14 18:40:25;;;;;;;1.00;0.60;;;;;;;;;;8242543;28;21690;-74
2023/03/14 18:44:26;;;;;;;1.85;0.40;;;;;;;;;;8242071;28;20025;-73
2023/03/14 18:48:26;;;;;;;1.00;0.45;;;;;;;;;;8233894;28;20041;-74
2023/03/14 18:52:27;;;;;;;0.40;0.40;;;;;;;;;;8239219;28;20022;-74
2023/03/14 18:56:27;;;;;;;0.80;0.52;;;;;;;;;;8238491;28;20820;-74
2023/03/14 19:00:28;;;;;;;0.90;0.68;;;;;;;;;;8235928;28;20042;-73
2023/03/14 19:04:28;;;;;;;2.15;0.82;;;;;;;;;;8238651;28;20747;-74
2023/03/14 19:08:28;;;;;;;3.30;1.00;;;;;;;;;;8249824;28;20062;-73
2023/03/14 19:12:28;;;;;;;2.17;0.90;;;;;;;;;;8234354;28;20025;-73
2023/03/14 19:16:29;;;;;;;3.03;1.13;;;;;;;;;;8233890;28;20026;-73
2023/03/14 19:20:29;;;;;;;2.65;1.00;;;;;;;;;;8234576;28;20072;-73
2023/03/14 19:24:29;;;;;;;5.13;1.23;;;;;;;;;;8237927;28;20581;-74
2023/03/14 19:28:30;;;;;;;4.57;1.00;;;;;;;;;;8237750;28;20078;-74
2023/03/14 19:32:31;;;;;;;2.47;1.10;;;;;;;;;;8236790;28;20038;-74
2023/03/14 19:36:32;;;;;;;1.58;1.00;;;;;;;;;;8235512;28;20037;-73
2023/03/14 19:40:35;;;;;;;2.45;1.00;;;;;;;;;;8238487;28;20029;-74
2023/03/14 19:44:35;;;;;;;4.88;1.20;;;;;;;;;;8240132;28;20019;-74
2023/03/14 19:48:36;;;;;;;2.97;1.30;;;;;;;;;;8232753;28;20042;-74
2023/03/14 19:52:37;;;;;;;3.47;1.20;;;;;;;;;;8237651;28;20264;-74
2023/03/14 19:56:39;;;;;;;3.30;1.25;;;;;;;;;;8236858;28;20034;-74
2023/03/14 20:00:40;;;;;;;1.75;1.10;;;;;;;;;;8236451;28;20956;-74
2023/03/14 20:04:45;;;;;;;3.70;1.20;;;;;;;;;;8235459;28;20022;-73
2023/03/14 20:08:45;;;;;;;3.60;1.23;;;;;;;;;;8236744;28;20018;-74
2023/03/14 20:12:46;;;;;;;3.40;1.58;;;;;;;;;;8237084;28;20038;-74
2023/03/14 20:16:46;;;;;;;3.47;1.27;;;;;;;;;;8241087;28;20049;-74
2023/03/14 20:20:46;;;;;;;4.82;1.40;;;;;;;;;;8235604;28;20160;-74
2023/03/14 20:24:46;;;;;;;4.80;1.40;;;;;;;;;;8240519;28;20099;-74
2023/03/14 20:28:47;;;;;;;5.80;1.77;;;;;;;;;;8236707;28;20018;-74
2023/03/14 20:32:48;;;;;;;4.68;1.58;;;;;;;;;;8238788;28;20045;-74
2023/03/14 20:36:51;;;;;;;3.13;1.40;;;;;;;;;;8238375;28;20049;-74
2023/03/14 20:40:54;;;;;;;3.33;1.40;;;;;;;;;;8237427;28;20021;-74
2023/03/14 20:44:54;;;;;;;3.70;1.80;;;;;;;;;;8233235;28;20081;-74
2023/03/14 20:48:55;;;;;;;3.72;1.65;;;;;;;;;;8233343;28;20038;-75
2023/03/14 20:52:55;;;;;;;2.72;1.42;;;;;;;;;;8238758;28;20088;-75
2023/03/14 20:56:55;;;;;;;6.00;2.30;;;;;;;;;;8236214;28;20837;-75
2023/03/14 21:00:56;;;;;;;3.28;1.50;;;;;;;;;;8239107;28;21984;-75
2023/03/14 21:04:56;;;;;;;3.97;1.58;;;;;;;;;;8241370;28;20172;-75
2023/03/14 21:08:57;;;;;;;5.47;1.73;;;;;;;;;;8244116;28;20100;-75
2023/03/14 21:12:57;;;;;;;3.83;2.00;;;;;;;;;;8244791;28;20018;-75
2023/03/14 21:16:59;;;;;;;3.05;1.63;;;;;;;;;;8247257;28;20132;-75
2023/03/14 21:20:59;;;;;;;6.72;2.08;;;;;;;;;;8242004;28;20137;-75
2023/03/14 21:24:59;;;;;;;6.15;2.15;;;;;;;;;;8238726;28;20064;-75
2023/03/14 21:29:02;;;;;;;7.53;2.40;;;;;;;;;;8243180;28;20026;-74
2023/03/14 21:33:02;;;;;;;2.90;1.95;;;;;;;;;;8243589;28;20121;-75
2023/03/14 21:37:03;;;;;;;4.03;1.45;;;;;;;;;;8243485;28;20994;-74
2023/03/14 21:41:05;;;;;;;2.53;1.40;;;;;;;;;;8248589;28;20042;-74
2023/03/14 21:45:06;;;;;;;1.83;1.25;;;;;;;;;;8247435;28;20022;-75
2023/03/14 21:49:06;;;;;;;2.72;1.20;;;;;;;;;;8244983;28;20102;-74
2023/03/14 21:53:06;;;;;;;3.00;1.00;;;;;;;;;;8244902;28;20868;-75
2023/03/14 21:57:06;;;;;;;2.55;0.85;;;;;;;;;;8244829;28;20785;-74
2023/03/14 22:01:08;;;;;;;3.55;1.73;;;;;;;;;;8247897;28;20042;-75
2023/03/14 22:05:12;;;;;;;3.65;1.10;;;;;;;;;;8244773;28;20018;-74
2023/03/14 22:09:13;;;;;;;6.70;1.00;;;;;;;;;;8244688;28;20022;-74
2023/03/14 22:13:14;;;;;;;3.83;1.10;;;;;;;;;;8245014;28;20789;-74
2023/03/14 22:17:14;;;;;;;2.60;0.93;;;;;;;;;;8247018;28;20129;-74
2023/03/14 22:21:14;;;;;;;4.32;1.02;;;;;;;;;;8244660;28;20104;-75
2023/03/14 22:25:15;;;;;;;7.38;1.50;;;;;;;;;;8242015;28;20903;-75
2023/03/14 22:29:16;;;;;;;6.63;1.50;;;;;;;;;;8241289;28;20032;-74
2023/03/14 22:33:16;;;;;;;3.33;1.15;;;;;;;;;;8243210;28;20038;-74
2023/03/14 22:37:17;;;;;;;2.47;1.13;;;;;;;;;;8241253;28;20617;-75
2023/03/14 22:41:17;;;;;;;4.05;1.13;;;;;;;;;;8240869;28;20103;-75
2023/03/14 22:45:17;;;;;;;5.13;1.38;;;;;;;;;;8242197;28;20031;-75
2023/03/14 22:49:18;;;;;;;4.82;1.75;;;;;;;;;;8243881;28;20501;-75
2023/03/14 22:53:18;;;;;;;2.90;1.10;;;;;;;;;;8242484;28;20090;-75
2023/03/14 22:57:18;;;;;;;4.47;2.00;;;;;;;;;;8239252;28;20034;-75
2023/03/14 23:01:18;;;;;;;2.85;0.95;;;;;;;;;;8256053;28;20991;-75
2023/03/14 23:05:18;;;;;;;3.25;0.90;;;;;;;;;;8240094;28;20026;-75
2023/03/14 23:09:20;;;;;;;4.07;1.13;;;;;;;;;;8243080;28;20388;-75
2023/03/14 23:13:20;;;;;;;4.80;1.05;;;;;;;;;;8257470;28;20322;-75
2023/03/14 23:17:20;;;;;;;3.75;1.13;;;;;;;;;;8242927;28;20071;-75
2023/03/14 23:21:23;;;;;;;2.35;1.08;;;;;;;;;;8240190;28;20026;-75
2023/03/14 23:25:23;;;;;;;1.92;0.98;;;;;;;;;;8241968;28;20072;-75
2023/03/14 23:29:24;;;;;;;4.93;1.20;;;;;;;;;;8244837;28;20564;-75
2023/03/14 23:33:25;;;;;;;2.95;1.30;;;;;;;;;;8245716;28;20046;-75
2023/03/14 23:37:26;;;;;;;4.35;1.27;;;;;;;;;;8252785;28;20029;-75
2023/03/14 23:41:26;;;;;;;3.25;1.00;;;;;;;;;;8241877;28;20038;-76
2023/03/14 23:45:26;;;;;;;3.20;1.08;;;;;;;;;;8254338;28;20042;-76
2023/03/14 23:49:26;;;;;;;5.38;1.65;;;;;;;;;;8240115;28;20108;-76
2023/03/14 23:53:27;;;;;;;2.67;1.10;;;;;;;;;;8257868;28;20088;-76
2023/03/14 23:57:27;;;;;;;4.75;1.58;;;;;;;;;;8240515;28;20324;-76
